createdAt,value
2017-12-20T00:01:13.340Z,26.58
2017-12-20T00:03:42.756Z,25.83
2017-12-20T00:06:10.896Z,29.55
2017-12-20T00:08:39.101Z,27.60
2017-12-20T00:11:07.184Z,26.40
2017-12-20T00:13:35.407Z,27.42
2017-12-20T00:16:03.517Z,28.15
2017-12-20T00:18:31.639Z,27.33
2017-12-20T00:20:59.805Z,26.52
2017-12-20T00:23:28.675Z,27.98
2017-12-20T00:25:56.815Z,26.95
2017-12-20T00:28:24.944Z,24.87
2017-12-20T00:30:53.835Z,24.15
2017-12-20T00:33:22.728Z,23.73
2017-12-20T00:35:51.617Z,22.48
2017-12-20T00:38:20.548Z,22.30
2017-12-20T00:40:48.664Z,24.10
2017-12-20T00:43:16.783Z,22.33
2017-12-20T00:45:44.918Z,22.90
2017-12-20T00:48:13.818Z,22.87
2017-12-20T00:50:42.736Z,23.00
2017-12-20T00:53:10.857Z,23.25
2017-12-20T00:55:38.997Z,21.12
2017-12-20T00:58:07.128Z,24.10
2017-12-20T01:00:36.026Z,24.20
2017-12-20T01:03:04.943Z,22.62
2017-12-20T01:05:33.084Z,23.58
2017-12-20T01:08:02.035Z,23.25
2017-12-20T01:10:30.878Z,22.25
2017-12-20T01:12:58.992Z,22.33
2017-12-20T01:15:27.139Z,24.15
2017-12-20T01:17:55.300Z,24.77
2017-12-20T01:20:23.420Z,25.00
2017-12-20T01:22:51.559Z,26.58
2017-12-20T01:25:19.676Z,25.88
2017-12-20T01:27:47.857Z,24.05
2017-12-20T01:30:15.997Z,21.75
2017-12-20T01:32:44.128Z,27.45
2017-12-20T01:35:12.612Z,25.52
2017-12-20T01:37:41.511Z,22.20
2017-12-20T01:40:09.676Z,23.55
2017-12-20T01:42:54.564Z,24.55
2017-12-20T01:45:22.722Z,24.58
2017-12-20T01:47:51.613Z,23.58
2017-12-20T01:50:20.499Z,23.58
2017-12-20T01:52:49.396Z,23.23
2017-12-20T01:55:17.517Z,24.02
2017-12-20T01:57:45.679Z,22.30
2017-12-20T02:00:13.796Z,24.08
2017-12-20T02:02:42.684Z,23.95
2017-12-20T02:05:10.816Z,22.50
2017-12-20T02:07:38.931Z,23.25
2017-12-20T02:10:07.825Z,25.98
2017-12-20T02:12:36.868Z,26.98
2017-12-20T02:15:04.983Z,29.58
2017-12-20T02:17:33.128Z,25.90
2017-12-20T02:20:01.268Z,24.00
2017-12-20T02:22:29.392Z,26.83
2017-12-20T02:24:57.523Z,26.98
2017-12-20T02:27:25.644Z,26.42
2017-12-20T02:29:53.784Z,27.62
2017-12-20T02:32:21.938Z,27.73
2017-12-20T02:34:50.054Z,30.02
2017-12-20T02:37:18.168Z,26.52
2017-12-20T02:39:46.308Z,26.52
2017-12-20T02:42:15.220Z,25.95
2017-12-20T02:44:44.125Z,28.40
2017-12-20T02:47:13.004Z,26.70
2017-12-20T02:49:41.885Z,24.65
2017-12-20T02:52:10.016Z,27.75
2017-12-20T02:54:38.211Z,25.45
2017-12-20T02:57:06.365Z,24.50
2017-12-20T02:59:34.478Z,25.10
2017-12-20T03:02:02.593Z,25.23
2017-12-20T03:04:30.737Z,24.80
2017-12-20T03:06:59.631Z,25.52
2017-12-20T03:09:28.605Z,26.27
2017-12-20T03:11:56.680Z,25.17
2017-12-20T03:14:24.798Z,27.75
2017-12-20T03:16:52.919Z,25.67
2017-12-20T03:19:21.043Z,25.12
2017-12-20T03:21:49.194Z,26.80
2017-12-20T03:24:18.076Z,28.40
2017-12-20T03:26:46.964Z,24.95
2017-12-20T03:29:15.864Z,25.20
2017-12-20T03:31:44.756Z,28.33
2017-12-20T03:34:13.652Z,25.95
2017-12-20T03:36:42.547Z,27.85
2017-12-20T03:39:10.660Z,28.90
2017-12-20T03:41:38.791Z,26.58
2017-12-20T03:44:06.919Z,28.75
2017-12-20T03:46:35.051Z,30.20
2017-12-20T03:49:03.172Z,28.50
2017-12-20T03:51:32.084Z,30.20
2017-12-20T03:54:00.264Z,33.08
2017-12-20T03:56:29.180Z,28.67
2017-12-20T03:58:57.300Z,29.67
2017-12-20T04:01:25.440Z,32.95
2017-12-20T04:03:53.604Z,31.05
2017-12-20T04:06:21.743Z,32.33
2017-12-20T04:08:49.853Z,29.83
2017-12-20T04:11:17.972Z,33.53
2017-12-20T04:13:46.108Z,33.22
2017-12-20T04:16:14.245Z,32.65
2017-12-20T04:18:43.136Z,34.25
2017-12-20T04:21:12.020Z,32.00
2017-12-20T04:23:40.937Z,33.45
2017-12-20T04:26:09.066Z,32.88
2017-12-20T04:28:37.204Z,35.35
2017-12-20T04:31:05.347Z,33.65
2017-12-20T04:33:34.230Z,33.75
2017-12-20T04:36:03.108Z,32.85
2017-12-20T04:38:32.033Z,33.40
2017-12-20T04:41:00.151Z,37.83
2017-12-20T04:43:28.282Z,33.50
2017-12-20T04:45:56.423Z,34.33
2017-12-20T04:48:25.321Z,30.45
2017-12-20T04:50:54.204Z,35.83
2017-12-20T04:53:23.115Z,35.88
2017-12-20T04:55:51.245Z,37.60
2017-12-20T04:58:19.369Z,34.35
2017-12-20T05:00:47.512Z,33.13
2017-12-20T05:03:16.412Z,32.85
2017-12-20T05:05:45.329Z,32.67
2017-12-20T05:08:13.459Z,34.00
2017-12-20T05:10:41.585Z,34.60
2017-12-20T05:13:09.720Z,34.22
2017-12-20T05:15:38.636Z,34.38
2017-12-20T05:18:06.757Z,30.95
2017-12-20T05:20:34.901Z,33.72
2017-12-20T05:23:03.047Z,32.75
2017-12-20T05:25:32.054Z,35.05
2017-12-20T05:28:00.168Z,35.58
2017-12-20T05:30:28.300Z,32.78
2017-12-20T05:32:56.423Z,35.50
2017-12-20T05:35:24.546Z,34.38
2017-12-20T05:37:52.691Z,34.83
2017-12-20T05:40:21.585Z,35.10
2017-12-20T05:42:50.484Z,31.80
2017-12-20T05:45:19.390Z,33.55
2017-12-20T05:47:47.500Z,33.20
2017-12-20T05:50:15.616Z,34.45
2017-12-20T05:52:44.515Z,33.92
2017-12-20T05:55:12.707Z,33.42
2017-12-20T05:57:40.849Z,37.88
2017-12-20T06:00:08.996Z,32.70
2017-12-20T06:02:37.140Z,35.47
2017-12-20T06:05:05.267Z,36.45
2017-12-20T06:07:34.186Z,34.83
2017-12-20T06:10:02.304Z,36.17
2017-12-20T06:12:30.426Z,34.50
2017-12-20T06:14:59.323Z,34.42
2017-12-20T06:17:27.441Z,35.88
2017-12-20T06:19:55.636Z,36.65
2017-12-20T06:22:23.772Z,39.40
2017-12-20T06:24:51.897Z,34.03
2017-12-20T06:27:20.784Z,41.92
2017-12-20T06:29:48.957Z,42.90
2017-12-20T06:32:17.065Z,36.72
2017-12-20T06:34:45.175Z,35.22
2017-12-20T06:37:13.323Z,36.65
2017-12-20T06:39:41.435Z,65.05
2017-12-20T06:42:09.560Z,36.10
2017-12-20T06:44:37.725Z,38.55
2017-12-20T06:47:05.836Z,39.08
2017-12-20T06:49:33.976Z,35.15
2017-12-20T06:52:02.147Z,36.97
2017-12-20T06:54:30.264Z,35.00
2017-12-20T06:56:58.420Z,35.08
2017-12-20T06:59:26.557Z,36.28
2017-12-20T07:01:54.701Z,34.58
2017-12-20T07:04:22.813Z,34.47
2017-12-20T07:06:50.960Z,35.88
2017-12-20T07:09:19.841Z,36.25
2017-12-20T07:11:48.728Z,35.20
2017-12-20T07:14:16.885Z,35.83
2017-12-20T07:16:45.016Z,34.90
2017-12-20T07:19:13.136Z,37.55
2017-12-20T07:21:41.275Z,37.97
2017-12-20T07:24:09.408Z,36.50
2017-12-20T07:26:38.297Z,38.95
2017-12-20T07:29:06.445Z,40.00
2017-12-20T07:31:34.561Z,41.67
2017-12-20T07:34:03.473Z,41.45
2017-12-20T07:36:31.610Z,37.17
2017-12-20T07:39:00.502Z,38.30
2017-12-20T07:41:29.389Z,38.90
2017-12-20T07:43:58.295Z,36.65
2017-12-20T07:46:27.198Z,45.60
2017-12-20T07:48:55.308Z,39.25
2017-12-20T07:51:23.448Z,41.90
2017-12-20T07:53:51.563Z,41.05
2017-12-20T07:56:19.688Z,40.47
2017-12-20T07:58:47.836Z,39.65
2017-12-20T08:01:16.713Z,39.67
2017-12-20T08:03:44.825Z,39.80
2017-12-20T08:06:12.972Z,37.40
2017-12-20T08:08:41.857Z,38.50
2017-12-20T08:11:09.973Z,39.10
2017-12-20T08:13:38.133Z,37.33
2017-12-20T08:16:06.336Z,36.65
2017-12-20T08:18:34.456Z,42.22
2017-12-20T08:21:03.369Z,41.58
2017-12-20T08:23:31.502Z,44.50
2017-12-20T08:25:59.649Z,37.78
2017-12-20T08:28:27.806Z,37.63
2017-12-20T08:30:55.944Z,38.83
2017-12-20T08:33:24.076Z,37.20
2017-12-20T08:35:52.221Z,39.58
2017-12-20T08:38:20.335Z,39.58
2017-12-20T08:40:48.454Z,43.78
2017-12-20T08:43:16.624Z,43.47
2017-12-20T08:45:45.529Z,41.20
2017-12-20T08:48:13.669Z,40.90
2017-12-20T08:50:41.800Z,44.75
2017-12-20T08:53:09.934Z,45.85
2017-12-20T08:55:38.808Z,40.47
2017-12-20T08:58:07.772Z,39.35
2017-12-20T09:00:35.882Z,43.83
2017-12-20T09:03:04.764Z,40.00
2017-12-20T09:05:33.676Z,41.03
2017-12-20T09:08:02.557Z,38.45
2017-12-20T09:10:31.440Z,41.67
2017-12-20T09:13:00.374Z,42.13
2017-12-20T09:15:28.496Z,42.62
2017-12-20T09:17:56.610Z,40.78
2017-12-20T09:20:24.789Z,39.38
2017-12-20T09:22:52.906Z,39.58
2017-12-20T09:25:21.033Z,45.28
2017-12-20T09:27:49.193Z,43.38
2017-12-20T09:30:17.367Z,81.95
2017-12-20T09:32:47.108Z,54.28
2017-12-20T09:35:15.248Z,48.83
2017-12-20T09:37:43.376Z,44.40
2017-12-20T09:40:11.497Z,45.03
2017-12-20T09:42:39.991Z,46.83
2017-12-20T09:45:08.104Z,42.40
2017-12-20T09:47:36.228Z,45.95
2017-12-20T09:50:04.395Z,46.37
2017-12-20T09:52:33.285Z,43.75
2017-12-20T09:55:02.193Z,41.53
2017-12-20T09:57:30.324Z,43.33
2017-12-20T09:59:58.444Z,43.63
2017-12-20T10:02:26.576Z,46.85
2017-12-20T10:04:54.788Z,45.55
2017-12-20T10:07:22.895Z,46.63
2017-12-20T10:09:51.069Z,44.97
2017-12-20T10:12:19.225Z,44.05
2017-12-20T10:14:47.377Z,42.85
2017-12-20T10:17:15.492Z,43.90
2017-12-20T10:19:43.636Z,46.67
2017-12-20T10:22:11.767Z,48.15
2017-12-20T10:24:40.670Z,49.92
2017-12-20T10:27:09.573Z,46.85
2017-12-20T10:29:38.475Z,53.03
2017-12-20T10:32:06.605Z,45.72
2017-12-20T10:34:34.749Z,45.17
2017-12-20T10:37:02.860Z,43.15
2017-12-20T10:39:31.756Z,44.03
2017-12-20T10:42:00.672Z,45.75
2017-12-20T10:44:29.550Z,41.75
2017-12-20T10:46:58.440Z,43.03
2017-12-20T10:49:27.345Z,45.33
2017-12-20T10:51:55.471Z,44.70
2017-12-20T10:54:23.580Z,44.05
2017-12-20T10:56:52.511Z,46.00
2017-12-20T10:59:20.638Z,43.90
2017-12-20T11:01:49.520Z,44.38
2017-12-20T11:04:18.435Z,44.55
2017-12-20T11:06:47.335Z,43.30
2017-12-20T11:09:15.452Z,38.20
2017-12-20T11:11:43.597Z,41.25
2017-12-20T11:14:11.711Z,41.58
2017-12-20T11:16:39.822Z,40.38
2017-12-20T11:19:07.967Z,42.83
2017-12-20T11:21:36.881Z,41.92
2017-12-20T11:24:04.993Z,41.60
2017-12-20T11:26:33.241Z,43.15
2017-12-20T11:29:01.340Z,42.40
2017-12-20T11:31:29.471Z,42.22
2017-12-20T11:33:58.388Z,43.50
2017-12-20T11:36:26.552Z,38.88
2017-12-20T11:38:54.664Z,38.50
2017-12-20T11:41:22.829Z,42.58
2017-12-20T11:43:50.949Z,40.10
2017-12-20T11:46:19.820Z,49.08
2017-12-20T11:48:48.021Z,39.83
2017-12-20T11:51:16.911Z,40.38
2017-12-20T11:53:45.814Z,38.78
2017-12-20T11:56:13.956Z,40.75
2017-12-20T11:58:42.070Z,41.47
2017-12-20T12:01:10.197Z,37.60
2017-12-20T12:03:38.381Z,42.45
2017-12-20T12:06:07.267Z,39.80
2017-12-20T12:08:35.400Z,38.38
2017-12-20T12:11:03.535Z,38.85
2017-12-20T12:13:31.651Z,41.25
2017-12-20T12:15:59.768Z,42.25
2017-12-20T12:18:28.676Z,39.60
2017-12-20T12:20:56.801Z,39.28
2017-12-20T12:23:24.909Z,34.85
2017-12-20T12:25:53.821Z,37.33
2017-12-20T12:28:21.952Z,36.20
2017-12-20T12:30:50.174Z,36.60
2017-12-20T12:33:19.052Z,34.45
2017-12-20T12:35:47.176Z,36.75
2017-12-20T12:38:15.285Z,35.50
2017-12-20T12:40:44.192Z,33.03
2017-12-20T12:43:12.312Z,33.92
2017-12-20T12:45:40.435Z,36.92
2017-12-20T12:48:09.356Z,35.35
2017-12-20T12:50:37.466Z,33.33
2017-12-20T12:53:05.608Z,39.38
2017-12-20T12:55:33.759Z,35.25
2017-12-20T12:58:01.876Z,37.33
2017-12-20T13:00:30.108Z,35.25
2017-12-20T13:02:58.995Z,32.22
2017-12-20T13:05:27.114Z,33.92
2017-12-20T13:07:55.244Z,34.08
2017-12-20T13:10:23.420Z,30.95
2017-12-20T13:12:51.537Z,33.40
2017-12-20T13:15:19.664Z,31.30
2017-12-20T13:17:48.583Z,34.40
2017-12-20T13:20:16.702Z,31.20
2017-12-20T13:22:45.576Z,32.55
2017-12-20T13:25:13.711Z,30.75
2017-12-20T13:27:41.839Z,34.10
2017-12-20T13:30:10.734Z,29.55
2017-12-20T13:32:39.755Z,31.83
2017-12-20T13:35:07.860Z,28.67
2017-12-20T13:37:36.005Z,31.45
2017-12-20T13:40:04.177Z,34.80
2017-12-20T13:42:32.288Z,29.87
2017-12-20T13:45:00.410Z,30.60
2017-12-20T13:47:29.325Z,30.27
2017-12-20T13:49:57.440Z,29.98
2017-12-20T13:52:25.560Z,29.30
2017-12-20T13:54:53.704Z,31.17
2017-12-20T13:57:22.577Z,25.20
2017-12-20T13:59:50.704Z,28.70
2017-12-20T14:02:18.842Z,26.65
2017-12-20T14:04:47.727Z,29.27
2017-12-20T14:07:16.628Z,28.23
2017-12-20T14:09:45.536Z,27.10
2017-12-20T14:12:13.692Z,26.37
2017-12-20T14:14:42.581Z,29.48
2017-12-20T14:17:11.532Z,27.23
2017-12-20T14:19:39.672Z,29.92
2017-12-20T14:22:07.768Z,27.08
2017-12-20T14:24:35.936Z,25.92
2017-12-20T14:27:04.059Z,25.95
2017-12-20T14:29:32.176Z,28.20
2017-12-20T14:32:00.326Z,25.80
2017-12-20T14:34:29.204Z,22.85
2017-12-20T14:36:58.088Z,25.50
2017-12-20T14:39:26.241Z,25.60
2017-12-20T14:41:54.352Z,24.80
2017-12-20T14:44:23.230Z,24.35
2017-12-20T14:46:52.144Z,22.77
2017-12-20T14:49:20.270Z,23.52
2017-12-20T14:51:48.380Z,22.70
2017-12-20T14:54:17.281Z,25.30
2017-12-20T14:56:45.397Z,25.30
2017-12-20T14:59:13.500Z,25.02
2017-12-20T15:01:42.433Z,24.37
2017-12-20T15:04:10.588Z,22.40
2017-12-20T15:06:38.708Z,25.30
2017-12-20T15:09:06.848Z,23.80
2017-12-20T15:11:34.961Z,21.67
2017-12-20T15:14:03.084Z,24.85
2017-12-20T15:16:31.224Z,23.40
2017-12-20T15:18:59.341Z,23.42
2017-12-20T15:21:27.454Z,23.95
2017-12-20T15:23:55.595Z,27.83
2017-12-20T15:26:23.769Z,21.73
2017-12-20T15:28:52.613Z,19.87
2017-12-20T15:31:20.761Z,19.95
2017-12-20T15:33:48.908Z,22.08
2017-12-20T15:36:17.024Z,20.20
2017-12-20T15:38:45.164Z,22.08
2017-12-20T15:41:13.279Z,22.50
2017-12-20T15:43:42.200Z,23.48
2017-12-20T15:46:11.124Z,22.15
2017-12-20T15:48:39.244Z,21.73
2017-12-20T15:51:08.128Z,21.23
2017-12-20T15:53:37.032Z,23.15
2017-12-20T15:56:05.920Z,22.55
2017-12-20T15:58:34.801Z,23.73
2017-12-20T16:01:03.748Z,22.30
2017-12-20T16:03:31.881Z,25.02
2017-12-20T16:06:00.790Z,21.95
2017-12-20T16:08:28.936Z,19.23
2017-12-20T16:10:57.816Z,22.52
2017-12-20T16:13:25.945Z,23.40
2017-12-20T16:15:54.092Z,21.12
2017-12-20T16:18:22.213Z,22.25
2017-12-20T16:20:50.328Z,23.33
2017-12-20T16:23:19.237Z,22.87
2017-12-20T16:25:47.351Z,22.95
2017-12-20T16:28:15.472Z,21.60
2017-12-20T16:30:43.638Z,19.92
2017-12-20T16:33:12.527Z,21.90
2017-12-20T16:35:41.447Z,21.17
2017-12-20T16:38:09.616Z,19.37
2017-12-20T16:40:37.786Z,20.37
2017-12-20T16:43:05.965Z,21.73
2017-12-20T16:45:34.092Z,22.67
2017-12-20T16:48:02.220Z,20.95
2017-12-20T16:50:30.336Z,21.92
2017-12-20T16:52:58.501Z,24.33
2017-12-20T16:55:26.636Z,23.40
2017-12-20T16:57:54.799Z,24.45
2017-12-20T17:00:22.994Z,24.20
2017-12-20T17:02:51.113Z,24.83
2017-12-20T17:05:19.244Z,22.10
2017-12-20T17:07:47.393Z,23.15
2017-12-20T17:10:15.516Z,23.42
2017-12-20T17:12:43.646Z,22.37
2017-12-20T17:15:11.840Z,24.87
2017-12-20T17:17:40.013Z,22.25
2017-12-20T17:20:08.181Z,23.87
2017-12-20T17:22:36.348Z,25.37
2017-12-20T17:25:04.537Z,23.42
2017-12-20T17:27:32.676Z,23.33
2017-12-20T17:30:01.613Z,24.25
2017-12-20T17:32:29.793Z,23.62
2017-12-20T17:34:57.952Z,21.95
2017-12-20T17:37:26.181Z,23.58
2017-12-20T17:39:54.325Z,23.10
2017-12-20T17:42:22.559Z,24.10
2017-12-20T17:44:50.764Z,24.25
2017-12-20T17:47:18.870Z,26.08
2017-12-20T17:49:47.769Z,24.33
2017-12-20T17:52:15.984Z,24.55
2017-12-20T17:54:44.160Z,25.60
2017-12-20T17:57:12.287Z,27.60
2017-12-20T17:59:41.269Z,27.25
2017-12-20T18:02:09.412Z,24.87
2017-12-20T18:04:38.148Z,25.98
2017-12-20T18:07:06.305Z,24.60
2017-12-20T18:09:34.451Z,24.83
2017-12-20T18:12:02.608Z,23.87
2017-12-20T18:14:30.789Z,22.35
2017-12-20T18:17:00.294Z,23.30
2017-12-20T18:19:28.437Z,20.17
2017-12-20T18:21:56.606Z,21.60
2017-12-20T18:24:25.172Z,21.75
2017-12-20T18:26:54.097Z,20.90
2017-12-20T18:29:22.269Z,22.33
2017-12-20T18:31:50.397Z,22.25
2017-12-20T18:34:18.602Z,20.40
2017-12-20T18:36:47.531Z,21.50
2017-12-20T18:39:15.652Z,18.77
2017-12-20T18:41:43.860Z,20.85
2017-12-20T18:44:12.020Z,18.75
2017-12-20T18:46:40.136Z,18.73
2017-12-20T18:49:08.264Z,17.70
2017-12-20T18:51:37.184Z,17.60
2017-12-20T18:54:05.296Z,17.58
2017-12-20T18:56:33.448Z,15.13
2017-12-20T18:59:01.601Z,14.82
2017-12-20T19:01:29.713Z,15.82
2017-12-20T19:03:57.838Z,15.48
2017-12-20T19:06:26.804Z,14.77
2017-12-20T19:08:55.734Z,16.12
2017-12-20T19:11:23.863Z,14.27
2017-12-20T19:13:52.006Z,15.48
2017-12-20T19:16:20.173Z,14.68
2017-12-20T19:18:48.342Z,16.08
2017-12-20T19:21:16.545Z,18.40
2017-12-20T19:23:44.671Z,17.40
2017-12-20T19:26:12.842Z,17.60
2017-12-20T19:28:41.061Z,20.10
2017-12-20T19:31:09.200Z,15.30
2017-12-20T19:33:37.367Z,14.57
2017-12-20T19:36:05.553Z,14.77
2017-12-20T19:38:34.456Z,14.10
2017-12-20T19:41:02.583Z,15.00
2017-12-20T19:43:31.518Z,15.90
2017-12-20T19:45:59.628Z,16.50
2017-12-20T19:48:27.760Z,17.20
2017-12-20T19:50:55.944Z,15.63
2017-12-20T19:53:24.070Z,15.50
2017-12-20T19:55:52.975Z,14.45
2017-12-20T19:58:21.168Z,16.27
2017-12-20T20:00:49.277Z,16.35
2017-12-20T20:03:17.436Z,14.73
2017-12-20T20:05:45.592Z,16.85
2017-12-20T20:08:13.753Z,15.20
2017-12-20T20:10:41.941Z,18.02
2017-12-20T20:13:10.116Z,21.62
2017-12-20T20:15:38.287Z,15.75
2017-12-20T20:18:06.426Z,16.65
2017-12-20T20:20:35.337Z,14.63
2017-12-20T20:23:03.462Z,13.95
2017-12-20T20:25:31.586Z,14.05
2017-12-20T20:27:59.733Z,14.80
2017-12-20T20:30:28.629Z,15.13
2017-12-20T20:32:57.545Z,13.65
2017-12-20T20:35:25.684Z,13.85
2017-12-20T20:37:54.570Z,17.90
2017-12-20T20:40:22.677Z,16.70
2017-12-20T20:42:50.828Z,14.40
2017-12-20T20:45:19.736Z,13.52
2017-12-20T20:47:47.856Z,13.85
2017-12-20T20:50:16.006Z,12.35
2017-12-20T20:52:44.120Z,13.65
2017-12-20T20:55:12.245Z,13.07
2017-12-20T20:57:40.384Z,13.23
2017-12-20T21:00:09.284Z,11.82
2017-12-20T21:02:38.172Z,13.23
2017-12-20T21:05:07.077Z,12.68
2017-12-20T21:07:35.205Z,13.35
2017-12-20T21:10:03.316Z,11.63
2017-12-20T21:12:32.257Z,12.23
2017-12-20T21:15:00.399Z,12.70
2017-12-20T21:17:28.506Z,11.88
2017-12-20T21:19:56.644Z,14.15
2017-12-20T21:22:24.792Z,11.68
2017-12-20T21:24:53.672Z,16.05
2017-12-20T21:27:21.836Z,12.05
2017-12-20T21:29:49.953Z,14.57
2017-12-20T21:32:18.068Z,14.02
2017-12-20T21:34:46.208Z,13.90
2017-12-20T21:37:14.329Z,16.70
2017-12-20T21:39:42.446Z,14.10
2017-12-20T21:42:10.629Z,12.95
2017-12-20T21:44:38.746Z,14.45
2017-12-20T21:47:06.868Z,13.88
2017-12-20T21:49:35.016Z,14.07
2017-12-20T21:52:03.896Z,27.15
2017-12-20T21:54:32.028Z,28.15
2017-12-20T21:57:00.182Z,14.05
2017-12-20T21:59:28.312Z,14.70
2017-12-20T22:01:56.441Z,15.20
2017-12-20T22:04:24.602Z,16.25
2017-12-20T22:06:52.724Z,13.57
2017-12-20T22:09:20.856Z,14.48
2017-12-20T22:11:49.032Z,15.25
2017-12-20T22:14:17.147Z,15.30
2017-12-20T22:16:45.306Z,14.57
2017-12-20T22:19:13.448Z,17.65
2017-12-20T22:21:41.572Z,17.15
2017-12-20T22:24:09.685Z,16.20
2017-12-20T22:26:37.846Z,18.02
2017-12-20T22:29:06.724Z,14.27
2017-12-20T22:31:35.642Z,15.30
2017-12-20T22:34:03.792Z,16.40
2017-12-20T22:36:32.680Z,17.02
2017-12-20T22:39:01.573Z,17.58
2017-12-20T22:41:30.485Z,16.40
2017-12-20T22:43:58.607Z,18.55
2017-12-20T22:46:26.719Z,15.85
2017-12-20T22:48:55.000Z,17.23
2017-12-20T22:51:23.125Z,17.98
2017-12-20T22:53:51.244Z,16.27
2017-12-20T22:56:19.390Z,16.75
2017-12-20T22:58:47.504Z,14.80
2017-12-20T23:01:15.630Z,16.48
2017-12-20T23:03:43.765Z,15.75
2017-12-20T23:06:11.876Z,19.23
2017-12-20T23:08:40.002Z,17.37
2017-12-20T23:11:08.152Z,16.73
2017-12-20T23:13:37.027Z,15.18
2017-12-20T23:16:05.929Z,16.80
2017-12-20T23:18:34.872Z,16.15
2017-12-20T23:21:02.983Z,17.85
2017-12-20T23:23:31.860Z,18.30
2017-12-20T23:26:00.024Z,18.35
2017-12-20T23:28:28.139Z,17.17
2017-12-20T23:30:57.026Z,18.20
2017-12-20T23:33:25.933Z,17.42
2017-12-20T23:35:54.062Z,18.95
2017-12-20T23:38:22.183Z,17.17
2017-12-20T23:40:50.346Z,16.85
2017-12-20T23:43:19.222Z,18.17
2017-12-20T23:45:48.100Z,16.80
2017-12-20T23:48:16.232Z,17.48
2017-12-20T23:50:44.356Z,17.85
2017-12-20T23:53:13.244Z,18.67
2017-12-20T23:55:42.155Z,17.20
2017-12-20T23:58:11.068Z,16.83
